Time;durP1;ratioP1;P1;durP2;ratioP2;P2;SDS_P1;SDS_P2;PMS_P1;PMS_P2;Temp;Humidity;BMP_temperature;BMP_pressure;BME280_temperature;BME280_humidity;BME280_pressure;Samples;Min_cycle;Max_cycle;Signal;HPM_P1;HPM_P2
2021/03/31 00:01:20;;;;;;;6.35;2.63;;;19.60;42.10;;;;;;6277125;28;20020;-77
2021/03/31 00:04:21;;;;;;;4.90;2.72;;;19.60;42.10;;;;;;6295294;28;20037;-75
2021/03/31 00:07:22;;;;;;;5.60;2.75;;;19.50;42.20;;;;;;6249621;28;20226;-76
2021/03/31 00:10:39;;;;;;;7.47;2.95;;;19.50;42.30;;;;;;6269890;28;20064;-74
2021/03/31 00:13:40;;;;;;;4.97;2.75;;;19.50;42.20;;;;;;6254186;28;20035;-74
2021/03/31 00:16:41;;;;;;;11.77;3.00;;;19.50;42.20;;;;;;6268382;28;20467;-75
2021/03/31 00:19:42;;;;;;;11.65;3.40;;;19.40;42.30;;;;;;6277550;28;20035;-74
2021/03/31 00:22:43;;;;;;;11.18;3.60;;;19.40;42.50;;;;;;6260807;28;20374;-74
2021/03/31 00:25:44;;;;;;;6.15;2.92;;;19.40;42.70;;;;;;6277337;28;20038;-75
2021/03/31 00:28:46;;;;;;;8.13;3.00;;;19.40;42.90;;;;;;6271091;28;20506;-74
2021/03/31 00:31:49;;;;;;;8.93;3.30;;;19.30;42.80;;;;;;6293771;28;20032;-75
2021/03/31 00:34:50;;;;;;;7.38;2.95;;;19.50;42.80;;;;;;6293644;28;20028;-76
2021/03/31 00:37:51;;;;;;;6.25;2.67;;;19.30;42.80;;;;;;6244932;28;20035;-75
2021/03/31 00:40:53;;;;;;;6.05;3.05;;;19.30;42.80;;;;;;6260462;28;20039;-75
2021/03/31 00:43:54;;;;;;;6.50;2.95;;;19.20;42.70;;;;;;6294389;28;20119;-74
2021/03/31 00:46:55;;;;;;;8.57;3.20;;;19.20;42.70;;;;;;6260224;28;20036;-75
2021/03/31 00:49:56;;;;;;;8.48;3.00;;;19.20;42.70;;;;;;6277367;28;20048;-75
2021/03/31 00:52:59;;;;;;;11.07;3.67;;;19.10;42.70;;;;;;6260854;28;20025;-75
2021/03/31 00:56:00;;;;;;;6.28;2.58;;;19.10;42.90;;;;;;6269304;28;20568;-75
2021/03/31 00:59:01;;;;;;;5.97;3.10;;;19.00;43.00;;;;;;6252900;28;20036;-75
2021/03/31 01:02:03;;;;;;;7.97;3.03;;;19.00;43.20;;;;;;6252721;28;20648;-75
2021/03/31 01:05:18;;;;;;;9.48;2.80;;;18.90;43.20;;;;;;6236495;28;20028;-75
2021/03/31 01:08:19;;;;;;;5.65;2.78;;;18.90;43.30;;;;;;6268850;28;20033;-75
2021/03/31 01:12:02;;;;;;;6.53;3.22;;;18.80;43.40;;;;;;6252482;28;20094;-74
2021/03/31 01:15:15;;;;;;;18.73;2.85;;;18.80;43.60;;;;;;6265976;28;20060;-75
2021/03/31 01:18:31;;;;;;;6.55;3.08;;;18.80;43.70;;;;;;6252453;28;20059;-74
2021/03/31 01:21:44;;;;;;;5.63;2.70;;;18.70;43.80;;;;;;6269914;28;20013;-74
2021/03/31 01:25:13;;;;;;;7.80;2.80;;;18.70;43.90;;;;;;6268053;28;20031;-75
2021/03/31 01:28:38;;;;;;;6.57;2.53;;;18.60;44.00;;;;;;6252130;28;20564;-75
2021/03/31 01:32:00;;;;;;;4.80;2.35;;;18.60;44.00;;;;;;6265856;28;20040;-76
2021/03/31 01:35:06;;;;;;;8.25;3.20;;;18.50;44.00;;;;;;6251867;28;20025;-74
2021/03/31 01:38:10;;;;;;;9.55;2.70;;;18.50;44.00;;;;;;6268932;28;20513;-74
2021/03/31 01:41:15;;;;;;;12.63;2.65;;;18.50;44.00;;;;;;6258829;28;20028;-74
2021/03/31 01:44:18;;;;;;;7.63;2.70;;;18.50;44.20;;;;;;6293398;28;20028;-74
2021/03/31 01:47:19;;;;;;;9.65;2.60;;;18.50;44.40;;;;;;6292834;28;20025;-76
2021/03/31 01:50:21;;;;;;;7.40;2.90;;;18.40;44.50;;;;;;6248351;28;20123;-75
2021/03/31 01:53:23;;;;;;;11.45;2.63;;;18.40;44.50;;;;;;6251443;28;20025;-75
2021/03/31 01:56:26;;;;;;;6.20;2.70;;;18.30;44.60;;;;;;6252085;28;20059;-75
2021/03/31 01:59:28;;;;;;;5.88;3.15;;;18.30;44.70;;;;;;6251446;28;20032;-75
2021/03/31 02:02:30;;;;;;;3.65;2.58;;;18.30;44.90;;;;;;6254822;28;20052;-75
2021/03/31 02:05:31;;;;;;;5.85;3.40;;;18.30;45.00;;;;;;6251235;28;20040;-75
2021/03/31 02:08:32;;;;;;;8.77;3.03;;;18.20;45.30;;;;;;6267790;28;20428;-75
2021/03/31 02:11:33;;;;;;;8.45;3.20;;;18.20;46.30;;;;;;6251294;28;20624;-74
2021/03/31 02:14:39;;;;;;;5.68;2.63;;;18.20;45.80;;;;;;6268249;28;20028;-75
2021/03/31 02:17:41;;;;;;;7.30;2.75;;;18.10;45.90;;;;;;6235132;28;20025;-74
2021/03/31 02:20:42;;;;;;;6.35;3.42;;;18.10;45.90;;;;;;6258003;28;20033;-74
2021/03/31 02:23:43;;;;;;;10.48;3.03;;;18.10;46.20;;;;;;6268517;28;20029;-74
2021/03/31 02:26:45;;;;;;;7.22;3.03;;;18.10;46.40;;;;;;6256941;28;20052;-73
2021/03/31 02:29:47;;;;;;;6.35;3.00;;;18.10;46.30;;;;;;6264187;28;20421;-75
2021/03/31 02:32:51;;;;;;;9.07;3.22;;;18.10;46.50;;;;;;6241937;28;20029;-74
2021/03/31 02:35:52;;;;;;;5.47;2.85;;;18.00;46.90;;;;;;6274253;28;20035;-75
2021/03/31 02:38:53;;;;;;;9.23;3.55;;;18.00;47.10;;;;;;6267364;28;20036;-75
2021/03/31 02:41:56;;;;;;;6.00;3.30;;;17.90;47.10;;;;;;6284035;28;20052;-75
2021/03/31 02:44:59;;;;;;;7.57;3.70;;;17.90;47.20;;;;;;6263210;28;20448;-75
2021/03/31 02:48:02;;;;;;;6.80;2.92;;;17.90;47.30;;;;;;6262893;28;20089;-76
2021/03/31 02:51:05;;;;;;;6.15;2.80;;;17.80;47.50;;;;;;6279773;28;20036;-74
2021/03/31 02:54:10;;;;;;;7.53;3.22;;;17.70;47.80;;;;;;6275897;28;20511;-74
2021/03/31 02:57:11;;;;;;;17.88;3.35;;;17.70;48.00;;;;;;6276327;28;20062;-75
2021/03/31 03:00:13;;;;;;;7.72;3.15;;;17.60;48.30;;;;;;6257577;28;20029;-75
2021/03/31 03:03:14;;;;;;;7.30;3.10;;;17.50;48.60;;;;;;6262200;28;20059;-75
2021/03/31 03:06:15;;;;;;;6.15;3.63;;;17.40;48.60;;;;;;6276032;28;20132;-75
2021/03/31 03:09:17;;;;;;;5.85;2.92;;;17.40;48.60;;;;;;6255115;28;20048;-75
2021/03/31 03:12:18;;;;;;;8.40;3.28;;;17.30;48.60;;;;;;6256225;28;20029;-73
2021/03/31 03:15:24;;;;;;;6.40;3.00;;;17.30;48.90;;;;;;6296677;28;20036;-75
2021/03/31 03:18:25;;;;;;;7.00;3.13;;;17.30;49.60;;;;;;6250353;28;20097;-75
2021/03/31 03:21:28;;;;;;;8.50;3.00;;;17.30;49.10;;;;;;6255164;28;20053;-74
2021/03/31 03:24:30;;;;;;;8.55;2.88;;;17.30;49.30;;;;;;6254708;28;20056;-76
2021/03/31 03:27:31;;;;;;;4.57;2.65;;;17.20;49.40;;;;;;6261812;28;20041;-76
2021/03/31 03:30:33;;;;;;;10.38;3.22;;;17.10;49.60;;;;;;6277231;28;20078;-75
2021/03/31 03:33:35;;;;;;;7.20;3.15;;;17.10;49.70;;;;;;6261769;28;20024;-76
2021/03/31 03:36:40;;;;;;;10.20;3.40;;;17.00;49.90;;;;;;6265352;28;20044;-74
2021/03/31 03:39:41;;;;;;;13.18;2.90;;;17.00;49.90;;;;;;6254554;28;20378;-74
2021/03/31 03:42:43;;;;;;;7.72;3.15;;;17.00;50.00;;;;;;6255098;28;20044;-74
2021/03/31 03:45:44;;;;;;;9.27;3.60;;;16.90;50.00;;;;;;6254712;28;20037;-74
2021/03/31 03:48:45;;;;;;;9.18;5.43;;;16.90;50.00;;;;;;6270970;28;20044;-74
2021/03/31 03:51:46;;;;;;;12.90;7.72;;;16.80;49.90;;;;;;6273181;28;20036;-75
2021/03/31 03:54:52;;;;;;;8.20;5.20;;;16.80;49.90;;;;;;6257955;28;20039;-75
2021/03/31 03:57:54;;;;;;;9.30;4.22;;;16.70;49.90;;;;;;6272176;28;20028;-75
2021/03/31 04:00:56;;;;;;;11.77;3.97;;;16.70;49.90;;;;;;6283949;28;20064;-75
2021/03/31 04:03:57;;;;;;;9.10;3.58;;;16.70;50.00;;;;;;6247997;28;20122;-75
2021/03/31 04:06:58;;;;;;;8.05;3.20;;;16.70;50.20;;;;;;6270073;28;20151;-76
2021/03/31 04:10:00;;;;;;;7.00;2.95;;;16.60;50.30;;;;;;6271258;28;20116;-75
2021/03/31 04:13:03;;;;;;;13.05;3.75;;;16.60;50.30;;;;;;6254407;28;20021;-75
2021/03/31 04:16:10;;;;;;;14.48;3.20;;;16.60;50.40;;;;;;6270728;28;20101;-74
2021/03/31 04:19:13;;;;;;;6.07;3.28;;;16.60;50.40;;;;;;6238018;28;20043;-74
2021/03/31 04:22:15;;;;;;;8.30;3.65;;;16.60;50.40;;;;;;6260527;28;20051;-75
2021/03/31 04:25:18;;;;;;;5.35;3.50;;;16.50;50.30;;;;;;6277348;28;20047;-74
2021/03/31 04:28:21;;;;;;;6.22;3.40;;;16.60;50.50;;;;;;6244978;28;20024;-77
2021/03/31 04:31:23;;;;;;;5.25;3.30;;;16.50;50.60;;;;;;6271406;28;20501;-75
2021/03/31 04:34:24;;;;;;;11.07;3.95;;;16.50;50.70;;;;;;6270995;28;20021;-75
2021/03/31 04:37:25;;;;;;;9.63;3.78;;;16.40;50.70;;;;;;6264828;28;20033;-75
2021/03/31 04:40:26;;;;;;;10.57;3.00;;;16.40;50.80;;;;;;6285793;28;20160;-76
2021/03/31 04:43:32;;;;;;;9.57;3.40;;;16.40;50.70;;;;;;6294833;28;20035;-74
2021/03/31 04:46:33;;;;;;;10.82;3.70;;;16.40;50.70;;;;;;6294998;28;20039;-77
2021/03/31 04:49:34;;;;;;;8.60;3.72;;;16.40;50.60;;;;;;6250760;28;20045;-75
2021/03/31 04:52:35;;;;;;;5.30;2.97;;;16.40;50.60;;;;;;6269918;28;20044;-75
2021/03/31 04:55:36;;;;;;;8.63;3.47;;;16.40;50.80;;;;;;6244517;28;20504;-76
2021/03/31 04:58:36;;;;;;;7.53;3.20;;;16.40;50.80;;;;;;6270960;28;20021;-75
2021/03/31 05:01:38;;;;;;;9.18;3.45;;;16.40;51.00;;;;;;6236717;28;20021;-74
2021/03/31 05:04:39;;;;;;;11.32;3.42;;;16.40;51.20;;;;;;6276798;28;20044;-75
2021/03/31 05:07:40;;;;;;;7.75;3.78;;;16.40;51.30;;;;;;6262805;28;20021;-77
2021/03/31 05:10:41;;;;;;;8.60;3.80;;;16.30;51.30;;;;;;6268875;28;20032;-75
2021/03/31 05:13:42;;;;;;;9.15;3.53;;;16.30;51.20;;;;;;6277019;28;20021;-75
2021/03/31 05:16:42;;;;;;;10.65;3.42;;;16.30;51.20;;;;;;6256986;28;20024;-74
2021/03/31 05:19:43;;;;;;;10.60;4.38;;;16.30;51.30;;;;;;6252334;28;20491;-76
2021/03/31 05:22:44;;;;;;;17.75;4.75;;;16.40;51.90;;;;;;6252905;28;20032;-74
2021/03/31 05:25:45;;;;;;;9.30;4.25;;;16.40;51.20;;;;;;6294433;28;20038;-77
2021/03/31 05:28:46;;;;;;;16.00;4.72;;;16.40;51.10;;;;;;6260874;28;20047;-77
2021/03/31 05:31:47;;;;;;;9.82;3.92;;;16.40;51.10;;;;;;6277193;28;20024;-78
2021/03/31 05:34:48;;;;;;;7.90;3.72;;;16.40;51.00;;;;;;6262929;28;20078;-78
2021/03/31 05:37:49;;;;;;;8.32;3.85;;;16.40;51.00;;;;;;6269718;28;20311;-77
2021/03/31 05:40:50;;;;;;;7.97;4.05;;;16.40;51.00;;;;;;6254537;28;20029;-76
2021/03/31 05:43:51;;;;;;;11.90;4.32;;;16.40;51.00;;;;;;6244982;28;20375;-77
2021/03/31 05:46:53;;;;;;;10.77;3.58;;;16.40;51.00;;;;;;6234961;28;20021;-77
2021/03/31 05:49:54;;;;;;;14.85;4.90;;;16.30;51.00;;;;;;6261020;28;20031;-76
2021/03/31 05:52:55;;;;;;;9.73;4.05;;;16.40;51.00;;;;;;6238433;28;20029;-77
2021/03/31 05:55:56;;;;;;;13.15;4.65;;;16.30;51.10;;;;;;6292342;28;20120;-75
2021/03/31 05:59:01;;;;;;;15.90;4.75;;;16.30;51.30;;;;;;6250797;28;20029;-76
2021/03/31 06:02:03;;;;;;;7.15;3.97;;;16.30;51.30;;;;;;6252405;28;20028;-76
2021/03/31 06:05:04;;;;;;;12.00;4.68;;;16.30;51.50;;;;;;6258015;28;20036;-76
2021/03/31 06:08:05;;;;;;;7.45;3.70;;;16.20;51.60;;;;;;6251570;28;20135;-77
2021/03/31 06:11:06;;;;;;;10.27;4.25;;;16.10;51.80;;;;;;6243229;28;20491;-77
2021/03/31 06:14:07;;;;;;;10.70;4.30;;;16.10;51.90;;;;;;6264842;28;20134;-75
2021/03/31 06:17:15;;;;;;;10.90;4.55;;;16.00;52.00;;;;;;6243553;28;20025;-76
2021/03/31 06:20:39;;;;;;;12.70;4.90;;;16.10;52.10;;;;;;6269711;28;20120;-77
2021/03/31 06:26:45;;;;;;;8.90;4.70;;;16.20;52.10;;;;;;6278321;28;20035;-77
2021/03/31 06:30:02;;;;;;;24.88;4.75;;;16.20;52.00;;;;;;6256156;28;20052;-76
2021/03/31 06:33:05;;;;;;;9.23;4.70;;;16.20;51.90;;;;;;6265209;28;20106;-77
2021/03/31 06:36:07;;;;;;;13.00;4.57;;;16.20;51.80;;;;;;6267491;28;20094;-75
2021/03/31 06:39:21;;;;;;;14.15;4.50;;;16.30;51.70;;;;;;6252570;28;20148;-76
2021/03/31 06:42:34;;;;;;;11.40;4.05;;;16.30;51.60;;;;;;6250469;28;20029;-76
2021/03/31 06:45:38;;;;;;;13.13;4.45;;;16.40;51.50;;;;;;6273236;28;20468;-76
2021/03/31 06:48:46;;;;;;;13.65;4.45;;;16.50;51.30;;;;;;6246198;28;20354;-77
2021/03/31 06:51:47;;;;;;;15.75;4.53;;;16.60;51.20;;;;;;6265931;28;20439;-77
2021/03/31 06:54:53;;;;;;;9.07;4.28;;;16.60;51.10;;;;;;6291588;28;20029;-76
2021/03/31 06:57:57;;;;;;;17.65;4.68;;;16.60;51.00;;;;;;6271070;28;20104;-76
2021/03/31 07:00:58;;;;;;;7.68;3.97;;;16.60;51.00;;;;;;6243139;28;20025;-77
2021/03/31 07:04:06;;;;;;;10.77;3.92;;;16.60;50.90;;;;;;6274006;28;20041;-75
2021/03/31 07:07:10;;;;;;;9.50;3.83;;;16.60;50.60;;;;;;6247613;28;20025;-76
2021/03/31 07:10:19;;;;;;;13.65;3.92;;;16.60;50.60;;;;;;6273409;28;20337;-76
2021/03/31 07:13:27;;;;;;;11.05;4.00;;;16.60;50.60;;;;;;6261904;28;20037;-76
2021/03/31 07:16:31;;;;;;;17.13;5.00;;;16.70;50.50;;;;;;6274436;28;20067;-76
2021/03/31 07:19:32;;;;;;;12.25;4.13;;;16.70;50.50;;;;;;6277736;28;20025;-77
2021/03/31 07:22:34;;;;;;;15.02;4.22;;;16.80;50.50;;;;;;6252678;28;20363;-76
2021/03/31 07:25:35;;;;;;;11.38;3.90;;;16.90;50.40;;;;;;6262527;28;20067;-76
2021/03/31 07:28:38;;;;;;;9.77;3.90;;;17.00;50.30;;;;;;6283165;28;20624;-76
2021/03/31 07:31:43;;;;;;;12.60;4.07;;;17.00;50.10;;;;;;6263928;28;20039;-77
2021/03/31 07:34:44;;;;;;;12.77;4.18;;;17.20;50.10;;;;;;6233201;28;20678;-76
2021/03/31 07:37:46;;;;;;;10.25;3.67;;;17.30;49.90;;;;;;6267936;28;20622;-77
2021/03/31 07:40:50;;;;;;;12.95;4.38;;;17.40;49.70;;;;;;6261531;28;20479;-76
2021/03/31 07:43:56;;;;;;;14.15;4.65;;;17.50;49.50;;;;;;6261611;28;20028;-76
2021/03/31 07:46:59;;;;;;;7.65;3.55;;;17.60;49.40;;;;;;6244602;28;20176;-76
2021/03/31 07:50:01;;;;;;;13.10;4.50;;;17.80;49.30;;;;;;6248529;28;20041;-76
2021/03/31 07:53:04;;;;;;;9.55;4.20;;;17.90;49.00;;;;;;6277350;28;20032;-78
2021/03/31 07:56:19;;;;;;;12.52;4.65;;;18.10;48.80;;;;;;6254350;28;20041;-80
2021/03/31 07:59:21;;;;;;;18.38;4.93;;;18.10;48.50;;;;;;6231585;28;20109;-78
2021/03/31 08:02:23;;;;;;;12.25;4.25;;;18.20;48.40;;;;;;6253650;28;20627;-78
2021/03/31 08:05:24;;;;;;;20.35;4.15;;;18.40;48.10;;;;;;6270309;28;20037;-77
2021/03/31 08:08:25;;;;;;;16.60;4.28;;;18.50;47.70;;;;;;6266267;28;20324;-77
2021/03/31 08:11:41;;;;;;;13.80;4.63;;;18.60;47.40;;;;;;6260296;28;20033;-77
2021/03/31 08:14:44;;;;;;;20.77;4.38;;;18.80;47.10;;;;;;6269853;28;20147;-80
2021/03/31 08:17:45;;;;;;;17.35;4.63;;;18.90;46.50;;;;;;6277156;28;20513;-79
2021/03/31 08:20:49;;;;;;;12.20;3.92;;;19.10;46.00;;;;;;6265808;28;20041;-81
2021/03/31 08:23:52;;;;;;;6.88;3.33;;;19.20;45.70;;;;;;6276456;28;20124;-80
2021/03/31 08:26:58;;;;;;;6.53;2.50;;;19.30;45.30;;;;;;6287315;28;20262;-80
2021/03/31 08:30:00;;;;;;;9.45;3.13;;;19.40;44.70;;;;;;6270242;28;20029;-81
2021/03/31 08:33:02;;;;;;;17.52;4.03;;;19.50;44.50;;;;;;6279493;28;20025;-80
2021/03/31 08:36:03;;;;;;;7.25;3.05;;;19.70;44.40;;;;;;6264323;28;20044;-81
2021/03/31 08:39:07;;;;;;;8.73;3.10;;;19.90;44.10;;;;;;6258674;28;20041;-80
2021/03/31 08:42:08;;;;;;;13.63;3.35;;;20.00;43.70;;;;;;6261544;28;20497;-81
2021/03/31 08:45:21;;;;;;;4.57;2.67;;;20.20;43.50;;;;;;6254476;28;20078;-82
2021/03/31 08:48:40;;;;;;;5.45;2.83;;;20.40;43.10;;;;;;6267318;28;20090;-82
2021/03/31 08:51:41;;;;;;;28.67;9.13;;;20.50;42.70;;;;;;6272253;28;20029;-81
2021/03/31 08:54:49;;;;;;;23.23;10.00;;;20.70;42.30;;;;;;6236369;28;20036;-80
2021/03/31 08:57:51;;;;;;;19.50;10.48;;;20.70;42.00;;;;;;6285290;28;20494;-80
2021/03/31 09:00:54;;;;;;;18.23;7.25;;;20.80;41.60;;;;;;6294223;28;20389;-80
2021/03/31 09:04:15;;;;;;;10.90;4.00;;;20.90;41.50;;;;;;6266945;28;20152;-80
2021/03/31 09:07:17;;;;;;;10.43;4.50;;;21.10;41.60;;;;;;6267759;28;20037;-80
2021/03/31 09:10:19;;;;;;;13.73;4.10;;;21.20;41.10;;;;;;6276572;28;20036;-81
2021/03/31 09:13:38;;;;;;;10.63;3.83;;;21.30;40.90;;;;;;6253835;28;20036;-81
2021/03/31 09:16:47;;;;;;;7.30;3.47;;;21.30;40.60;;;;;;6253733;28;20028;-82
2021/03/31 09:19:52;;;;;;;9.95;4.07;;;21.40;40.50;;;;;;6259721;28;20040;-81
2021/03/31 09:22:57;;;;;;;8.70;3.83;;;21.50;40.20;;;;;;6248651;28;20025;-80
2021/03/31 09:26:01;;;;;;;9.20;3.33;;;21.70;39.80;;;;;;6262988;28;20054;-81
2021/03/31 09:29:02;;;;;;;8.70;2.90;;;21.80;39.50;;;;;;6240917;28;20555;-80
2021/03/31 09:32:05;;;;;;;3.88;2.05;;;22.00;39.30;;;;;;6263294;28;20037;-81
2021/03/31 09:35:16;;;;;;;19.55;3.80;;;22.00;38.20;;;;;;6270916;28;20128;-82
2021/03/31 09:38:29;;;;;;;21.17;9.43;;;22.00;38.00;;;;;;6269937;28;20096;-81
2021/03/31 09:41:31;;;;;;;7.57;2.95;;;22.10;38.10;;;;;;6275691;28;20028;-81
2021/03/31 09:44:33;;;;;;;15.57;5.55;;;22.20;37.90;;;;;;6251049;28;20075;-80
2021/03/31 09:47:37;;;;;;;9.65;5.28;;;22.20;37.60;;;;;;6270202;28;20065;-81
2021/03/31 09:50:40;;;;;;;10.82;5.55;;;22.30;37.60;;;;;;6261865;28;20025;-80
2021/03/31 09:53:43;;;;;;;20.83;6.15;;;22.40;37.50;;;;;;6274161;28;20095;-80
2021/03/31 09:56:45;;;;;;;12.13;4.00;;;22.50;37.20;;;;;;6262855;28;20326;-84
2021/03/31 09:59:47;;;;;;;9.85;4.20;;;22.60;36.90;;;;;;6261195;28;20153;-81
2021/03/31 10:02:48;;;;;;;9.75;4.43;;;22.60;36.70;;;;;;6277158;28;20118;-82
2021/03/31 10:05:51;;;;;;;29.35;8.30;;;22.70;36.60;;;;;;6252961;28;20021;-83
2021/03/31 10:08:52;;;;;;;13.73;4.00;;;22.80;36.50;;;;;;6254037;28;20121;-83
2021/03/31 10:11:54;;;;;;;8.27;3.55;;;22.90;37.10;;;;;;6250684;28;20292;-83
2021/03/31 10:14:57;;;;;;;12.50;3.22;;;22.90;36.20;;;;;;6262254;28;20278;-81
2021/03/31 10:17:58;;;;;;;22.50;8.38;;;23.00;36.10;;;;;;6261447;28;20054;-82
2021/03/31 10:21:01;;;;;;;8.68;4.50;;;23.10;35.90;;;;;;6276732;28;20079;-83
2021/03/31 10:24:05;;;;;;;17.05;5.00;;;23.20;36.10;;;;;;6256003;28;20029;-82
2021/03/31 10:27:07;;;;;;;11.43;3.42;;;23.30;36.10;;;;;;6267732;28;20051;-81
2021/03/31 10:30:23;;;;;;;6.15;2.22;;;23.40;35.90;;;;;;6276667;28;20416;-82
2021/03/31 10:33:24;;;;;;;36.15;17.83;;;23.50;35.70;;;;;;6268159;28;20032;-83
2021/03/31 10:52:47;;;;;;;9.75;2.65;;;25.10;33.40;;;;;;6280579;28;20032;-80
2021/03/31 10:55:52;;;;;;;8.95;3.42;;;25.60;32.40;;;;;;6263798;28;20093;-80
2021/03/31 10:58:53;;;;;;;22.20;4.95;;;26.10;31.40;;;;;;6272213;28;20017;-78
2021/03/31 11:01:54;;;;;;;11.65;3.25;;;26.50;30.60;;;;;;6255342;28;20568;-79
2021/03/31 11:04:56;;;;;;;7.78;2.40;;;26.90;30.90;;;;;;6242642;28;20039;-80
2021/03/31 11:07:58;;;;;;;5.07;2.20;;;27.30;30.00;;;;;;6271862;28;20059;-81
2021/03/31 11:10:59;;;;;;;21.77;4.07;;;27.60;29.20;;;;;;6250879;28;20436;-81
2021/03/31 11:14:01;;;;;;;8.05;2.20;;;27.70;28.70;;;;;;6266758;28;20055;-81
2021/03/31 11:17:06;;;;;;;6.18;2.20;;;28.00;28.50;;;;;;6276796;28;20075;-80
2021/03/31 11:20:21;;;;;;;6.25;2.38;;;28.20;27.90;;;;;;6267626;28;20635;-80
2021/03/31 11:26:41;;;;;;;9.13;2.60;;;28.50;27.20;;;;;;6272373;28;20025;-81
2021/03/31 11:29:43;;;;;;;9.88;2.58;;;28.50;26.80;;;;;;6222652;28;20037;-80
2021/03/31 11:32:44;;;;;;;17.92;2.88;;;28.50;26.90;;;;;;6277623;28;20033;-80
2021/03/31 11:35:47;;;;;;;12.50;2.70;;;28.60;27.00;;;;;;6246349;28;20035;-79
2021/03/31 11:38:48;;;;;;;5.95;2.00;;;28.70;27.30;;;;;;6240519;28;20037;-79
2021/03/31 11:41:49;;;;;;;8.07;2.13;;;28.90;26.40;;;;;;6238452;28;20038;-80
2021/03/31 11:44:51;;;;;;;8.90;2.67;;;28.90;26.20;;;;;;6292803;28;20116;-81
2021/03/31 11:47:53;;;;;;;12.65;2.78;;;29.10;26.20;;;;;;6278681;28;20029;-78
2021/03/31 11:50:54;;;;;;;13.50;2.63;;;29.20;25.60;;;;;;6265246;28;20036;-80
2021/03/31 11:53:55;;;;;;;6.80;2.60;;;29.40;25.50;;;;;;6279741;28;20025;-79
2021/03/31 11:56:58;;;;;;;7.85;2.13;;;29.60;25.80;;;;;;6281392;28;20051;-78
2021/03/31 11:59:59;;;;;;;5.32;2.50;;;29.80;25.50;;;;;;6273720;28;20396;-80
2021/03/31 12:03:02;;;;;;;4.20;2.35;;;30.10;25.10;;;;;;6266559;28;20072;-79
2021/03/31 12:06:04;;;;;;;8.65;2.70;;;30.40;24.60;;;;;;6278911;28;20534;-78
2021/03/31 12:09:08;;;;;;;7.32;2.35;;;30.60;24.60;;;;;;6273548;28;20148;-79
2021/03/31 12:12:11;;;;;;;6.07;1.98;;;30.70;24.00;;;;;;6257452;28;20033;-80
2021/03/31 12:15:13;;;;;;;14.63;2.97;;;30.70;23.80;;;;;;6274353;28;20033;-80
2021/03/31 12:18:14;;;;;;;6.10;2.13;;;30.50;24.20;;;;;;6263595;28;20095;-78
2021/03/31 12:21:15;;;;;;;9.15;2.22;;;30.60;24.50;;;;;;6258080;28;20092;-79
2021/03/31 12:24:16;;;;;;;5.35;2.03;;;30.80;23.60;;;;;;6247797;28;20052;-78
2021/03/31 12:27:22;;;;;;;8.73;2.13;;;31.30;23.00;;;;;;6256584;28;20029;-79
2021/03/31 12:30:24;;;;;;;5.93;2.30;;;31.80;22.50;;;;;;6244515;28;20036;-79
2021/03/31 12:33:26;;;;;;;4.47;1.98;;;32.20;22.00;;;;;;6282150;28;20028;-79
2021/03/31 12:36:26;;;;;;;4.90;2.33;;;32.60;21.70;;;;;;6271093;28;20075;-79
2021/03/31 12:39:27;;;;;;;6.25;2.13;;;33.20;21.30;;;;;;6287311;28;20043;-79
2021/03/31 12:42:28;;;;;;;6.18;2.38;;;33.70;20.80;;;;;;6279735;28;20029;-78
2021/03/31 12:45:29;;;;;;;5.03;2.10;;;34.20;20.40;;;;;;6266462;28;20495;-78
2021/03/31 12:48:30;;;;;;;8.30;1.90;;;34.50;20.20;;;;;;6274629;28;20025;-80
2021/03/31 12:51:44;;;;;;;3.33;2.28;;;35.00;19.50;;;;;;6245041;28;20035;-78
2021/03/31 12:55:02;;;;;;;4.63;2.10;;;35.30;19.30;;;;;;6241716;28;20025;-80
2021/03/31 12:58:06;;;;;;;4.85;2.08;;;35.30;19.10;;;;;;6256816;28;20317;-79
2021/03/31 13:01:20;;;;;;;5.45;2.45;;;35.40;19.20;;;;;;6279503;28;20036;-79
2021/03/31 13:04:21;;;;;;;5.68;2.30;;;35.60;18.90;;;;;;6274927;28;20048;-79
2021/03/31 13:07:23;;;;;;;5.80;2.50;;;35.90;18.80;;;;;;6261144;28;20528;-79
2021/03/31 13:10:25;;;;;;;6.55;2.92;;;36.30;18.60;;;;;;6232811;28;20091;-80
2021/03/31 13:16:47;;;;;;;8.43;3.88;;;36.60;18.10;;;;;;6276353;28;20071;-79
2021/03/31 13:23:53;;;;;;;7.45;2.20;;;37.10;17.80;;;;;;6276681;28;20032;-81
2021/03/31 13:26:43;;;;;;;5.22;2.38;;;37.30;17.40;;;;;;6285837;28;20040;-82
2021/03/31 13:36:02;;;;;;;3.03;1.63;;;37.30;17.00;;;;;;6261282;28;20447;-80
2021/03/31 13:42:27;;;;;;;4.13;2.38;;;36.80;17.30;;;;;;6221052;28;20370;-80
2021/03/31 13:45:28;;;;;;;9.43;2.20;;;37.00;17.30;;;;;;6207598;28;20037;-80
2021/03/31 13:48:45;;;;;;;5.90;1.95;;;36.90;17.30;;;;;;6186337;28;20021;-78
2021/03/31 13:52:06;;;;;;;6.63;1.88;;;36.10;17.60;;;;;;6201079;28;20054;-79
2021/03/31 13:55:11;;;;;;;4.25;2.13;;;34.80;18.40;;;;;;6200596;28;20045;-80
2021/03/31 13:58:12;;;;;;;6.65;2.05;;;33.40;19.50;;;;;;6200916;28;20046;-79
2021/03/31 14:01:13;;;;;;;5.25;2.08;;;32.30;20.30;;;;;;6201034;28;20052;-78
2021/03/31 14:04:14;;;;;;;3.70;2.00;;;31.40;21.00;;;;;;6200395;28;20702;-78
2021/03/31 14:07:17;;;;;;;4.68;2.25;;;30.80;21.40;;;;;;6196502;28;20507;-78
2021/03/31 14:10:19;;;;;;;5.00;2.25;;;30.10;22.00;;;;;;6200852;28;20052;-78
2021/03/31 14:13:21;;;;;;;4.35;2.20;;;29.70;22.60;;;;;;6200233;28;20037;-78
2021/03/31 14:16:22;;;;;;;2.63;1.73;;;29.30;22.90;;;;;;6200551;28;20041;-80
2021/03/31 14:19:23;;;;;;;4.35;2.03;;;29.00;23.30;;;;;;6240848;28;20105;-79
2021/03/31 14:22:25;;;;;;;6.45;2.25;;;28.70;23.60;;;;;;6262043;28;20429;-78
2021/03/31 14:25:26;;;;;;;4.13;2.20;;;28.40;23.80;;;;;;6259342;28;20040;-79
2021/03/31 14:28:27;;;;;;;4.80;2.47;;;28.10;24.10;;;;;;6240163;28;20094;-78
2021/03/31 14:31:31;;;;;;;4.65;1.88;;;27.90;24.40;;;;;;6240170;28;20473;-80
2021/03/31 14:34:33;;;;;;;4.80;1.92;;;27.80;24.60;;;;;;6246844;28;20025;-79
2021/03/31 14:37:34;;;;;;;9.25;2.30;;;27.70;24.70;;;;;;6262878;28;20029;-77
2021/03/31 14:40:37;;;;;;;7.00;2.33;;;27.60;24.90;;;;;;6256946;28;20406;-79
2021/03/31 14:43:38;;;;;;;7.68;2.33;;;27.50;25.10;;;;;;6255536;28;20033;-79
2021/03/31 14:46:40;;;;;;;4.25;1.80;;;27.40;25.20;;;;;;6253516;28;20047;-78
2021/03/31 14:49:42;;;;;;;3.55;1.95;;;27.30;25.40;;;;;;6240636;28;20110;-79
2021/03/31 15:02:32;;;;;;;5.70;2.22;;;27.30;25.80;;;;;;6268021;28;20065;-78
2021/03/31 15:05:33;;;;;;;11.32;2.38;;;27.20;25.70;;;;;;6258545;28;20032;-80
2021/03/31 15:08:34;;;;;;;7.03;1.80;;;27.20;25.80;;;;;;6248757;28;20385;-78
2021/03/31 15:11:35;;;;;;;5.28;2.45;;;27.20;25.90;;;;;;6278593;28;20037;-78
2021/03/31 15:14:36;;;;;;;4.57;2.03;;;27.20;26.00;;;;;;6276362;28;20024;-79
2021/03/31 15:17:37;;;;;;;3.63;2.25;;;27.20;26.20;;;;;;6253080;28;20043;-81
2021/03/31 15:20:44;;;;;;;4.03;2.38;;;27.20;26.30;;;;;;6257599;28;20046;-79
2021/03/31 15:23:45;;;;;;;7.35;3.20;;;27.20;26.40;;;;;;6261420;28;20036;-79
2021/03/31 15:26:46;;;;;;;3.70;1.95;;;27.20;26.50;;;;;;6267439;28;20039;-79
2021/03/31 15:29:48;;;;;;;6.40;2.15;;;27.10;26.40;;;;;;6252690;28;20485;-78
2021/03/31 15:32:49;;;;;;;9.63;2.95;;;27.10;26.50;;;;;;6287332;28;20033;-79
2021/03/31 15:35:50;;;;;;;5.53;2.67;;;27.10;26.60;;;;;;6257775;28;20378;-78
2021/03/31 15:38:51;;;;;;;7.25;2.10;;;27.10;26.70;;;;;;6277754;28;20050;-79
2021/03/31 15:41:56;;;;;;;6.30;2.22;;;27.00;26.70;;;;;;6246456;28;20135;-79
2021/03/31 15:44:57;;;;;;;7.85;1.92;;;27.00;26.70;;;;;;6257098;28;20025;-79
2021/03/31 15:47:58;;;;;;;4.22;2.22;;;27.00;26.70;;;;;;6268893;28;20133;-80
2021/03/31 15:51:00;;;;;;;9.60;3.72;;;27.00;26.80;;;;;;6272992;28;20408;-80
2021/03/31 15:54:02;;;;;;;5.88;2.58;;;27.00;26.90;;;;;;6278181;28;20089;-78
2021/03/31 15:57:04;;;;;;;4.63;1.90;;;27.00;26.80;;;;;;6278090;28;20056;-79
2021/03/31 16:00:09;;;;;;;9.00;2.10;;;27.00;26.90;;;;;;6278262;28;20097;-80
2021/03/31 16:03:20;;;;;;;4.35;2.35;;;26.90;26.80;;;;;;6247983;28;20059;-78
2021/03/31 16:07:29;;;;;;;5.18;2.38;;;27.00;26.80;;;;;;6265100;28;20021;-77
2021/03/31 16:09:42;;;;;;;5.55;2.33;;;26.90;26.70;;;;;;6271537;28;20101;-77
2021/03/31 16:12:43;;;;;;;8.32;2.70;;;26.90;26.60;;;;;;6262937;28;20364;-78
2021/03/31 16:15:44;;;;;;;3.70;1.85;;;27.00;26.40;;;;;;6255215;28;20272;-79
2021/03/31 16:18:45;;;;;;;5.15;2.10;;;26.90;26.30;;;;;;6255382;28;20029;-79
2021/03/31 16:21:46;;;;;;;3.85;2.00;;;26.90;25.90;;;;;;6254323;28;20024;-80
2021/03/31 16:24:48;;;;;;;4.43;2.20;;;27.00;26.00;;;;;;6277666;28;20509;-78
2021/03/31 16:33:56;;;;;;;8.65;2.80;;;27.00;25.20;;;;;;6267329;28;20485;-78
2021/03/31 16:36:58;;;;;;;4.68;1.70;;;27.00;25.20;;;;;;6273665;28;20112;-80
2021/03/31 16:39:59;;;;;;;8.43;2.30;;;27.00;25.40;;;;;;6237032;28;20084;-79
2021/03/31 16:43:00;;;;;;;4.20;1.65;;;26.90;25.40;;;;;;6268370;28;20039;-80
2021/03/31 16:46:01;;;;;;;4.85;1.92;;;26.80;25.30;;;;;;6256424;28;20056;-81